Time;durP1;ratioP1;P1;durP2;ratioP2;P2;SDS_P1;SDS_P2;PMS_P1;PMS_P2;Temp;Humidity;BMP_temperature;BMP_pressure;BME280_temperature;BME280_humidity;BME280_pressure;Samples;Min_cycle;Max_cycle;Signal;HPM_P1;HPM_P2
2021/04/20 00:02:19;;;;;;;46.67;33.43;;;;;;;8.04;82.73;100733.91;5109445;27;20204;-77
2021/04/20 00:04:45;;;;;;;42.33;32.37;;;;;;;8.00;83.87;100733.94;5109816;27;20210;-78
2021/04/20 00:07:11;;;;;;;43.67;32.10;;;;;;;7.96;83.68;100725.28;5109192;27;20593;-77
2021/04/20 00:09:38;;;;;;;38.73;31.20;;;;;;;8.03;83.98;100723.53;5110276;27;20207;-77
2021/04/20 00:12:05;;;;;;;43.73;31.87;;;;;;;8.00;83.40;100721.78;5109543;27;20199;-78
2021/04/20 00:14:31;;;;;;;42.03;31.83;;;;;;;7.98;83.83;100722.69;5109664;27;20218;-78
2021/04/20 00:16:56;;;;;;;45.50;33.10;;;;;;;7.91;83.83;100717.50;5108311;27;20618;-78
2021/04/20 00:19:22;;;;;;;42.93;32.63;;;;;;;7.84;84.05;100722.72;5108935;28;20207;-78
2021/04/20 00:21:48;;;;;;;43.03;33.03;;;;;;;7.70;84.58;100718.44;5108139;28;20212;-78
2021/04/20 00:24:14;;;;;;;43.23;32.13;;;;;;;7.59;84.32;100715.00;5109703;28;20204;-78
2021/04/20 00:26:41;;;;;;;40.83;32.57;;;;;;;7.49;84.85;100714.16;5109533;28;20365;-78
2021/04/20 00:29:07;;;;;;;44.50;32.80;;;;;;;7.43;85.17;100711.56;5109759;27;20207;-78
2021/04/20 00:31:33;;;;;;;39.40;31.70;;;;;;;7.39;85.02;100715.03;5108698;28;20206;-78
2021/04/20 00:33:59;;;;;;;47.67;33.20;;;;;;;7.38;86.09;100712.44;5109206;28;20213;-78
2021/04/20 00:36:25;;;;;;;44.30;33.53;;;;;;;7.35;86.07;100705.50;5108227;28;20280;-78
2021/04/20 00:38:51;;;;;;;50.47;34.67;;;;;;;7.35;86.50;100702.91;5109245;27;20209;-78
2021/04/20 00:41:17;;;;;;;48.30;33.47;;;;;;;7.32;85.92;100701.19;5108865;28;20207;-78
2021/04/20 00:43:46;;;;;;;43.97;32.57;;;;;;;7.28;85.82;100701.22;5109389;28;20230;-77
2021/04/20 00:46:14;;;;;;;48.73;34.27;;;;;;;7.27;86.30;100699.47;5108377;28;20220;-77
2021/04/20 00:48:40;;;;;;;44.50;31.47;;;;;;;7.27;86.54;100699.47;5109170;28;20212;-78
2021/04/20 00:51:08;;;;;;;44.80;33.30;;;;;;;7.32;86.08;100701.19;5107882;28;20208;-77
2021/04/20 00:53:34;;;;;;;43.20;32.27;;;;;;;7.30;85.59;100704.66;5108606;28;20256;-78
2021/04/20 00:56:00;;;;;;;43.67;32.67;;;;;;;7.30;86.10;100708.13;5107108;28;20224;-77
2021/04/20 00:58:26;;;;;;;41.53;31.63;;;;;;;7.26;86.47;100702.94;5108862;28;20203;-78
2021/04/20 01:00:53;;;;;;;45.53;32.50;;;;;;;7.25;86.69;100706.38;5108670;28;20200;-77
2021/04/20 01:03:20;;;;;;;39.53;30.17;;;;;;;7.25;86.48;100701.19;5108410;28;20215;-78
2021/04/20 01:05:47;;;;;;;45.30;32.47;;;;;;;7.23;86.25;100700.34;5109454;27;20589;-77
2021/04/20 01:08:15;;;;;;;44.80;32.93;;;;;;;7.18;86.66;100704.69;5108638;28;20272;-77
2021/04/20 01:10:43;;;;;;;45.90;31.63;;;;;;;7.17;86.48;100714.19;5108128;28;20203;-78
2021/04/20 01:13:10;;;;;;;41.20;30.83;;;;;;;7.12;85.51;100709.00;5107668;28;20204;-77
2021/04/20 01:15:36;;;;;;;43.47;31.17;;;;;;;7.12;86.32;100705.56;5108551;28;20215;-78
2021/04/20 01:18:11;;;;;;;45.40;33.40;;;;;;;7.01;86.44;100704.69;5109009;28;20235;-78
2021/04/20 01:20:37;;;;;;;41.70;32.30;;;;;;;6.95;87.32;100701.22;5107423;28;20207;-78
2021/04/20 01:23:03;;;;;;;44.17;32.23;;;;;;;6.97;87.92;100698.63;5108803;28;20211;-78
2021/04/20 01:25:31;;;;;;;50.40;33.70;;;;;;;6.93;87.60;100699.47;5107999;28;20232;-78
2021/04/20 01:27:56;;;;;;;48.37;32.67;;;;;;;6.96;87.61;100696.91;5108480;28;20225;-78
2021/04/20 01:30:23;;;;;;;40.10;31.17;;;;;;;6.97;86.98;100693.44;5108330;28;20208;-77
2021/04/20 01:32:49;;;;;;;44.70;32.00;;;;;;;7.04;87.62;100691.72;5108687;28;20226;-78
2021/04/20 01:35:15;;;;;;;48.10;31.63;;;;;;;7.06;87.27;100695.19;5107194;28;20696;-78
2021/04/20 01:37:41;;;;;;;45.47;31.97;;;;;;;6.99;87.68;100689.09;5108576;28;20248;-77
2021/04/20 01:40:09;;;;;;;39.47;30.33;;;;;;;7.02;87.60;100690.84;5108535;27;20195;-77
2021/04/20 01:42:36;;;;;;;39.23;30.13;;;;;;;6.96;87.65;100686.53;5108402;28;20613;-77
2021/04/20 01:45:05;;;;;;;39.73;28.47;;;;;;;7.02;87.01;100685.66;5108535;28;20207;-78
2021/04/20 01:47:31;;;;;;;38.70;29.70;;;;;;;6.94;87.08;100688.25;5108091;28;20215;-77
2021/04/20 01:49:59;;;;;;;45.37;33.33;;;;;;;6.90;87.57;100691.72;5108784;28;20204;-79
2021/04/20 01:52:25;;;;;;;40.27;30.87;;;;;;;6.86;88.13;100690.84;5109976;28;20304;-77
2021/04/20 01:54:52;;;;;;;39.57;29.67;;;;;;;7.01;87.54;100687.38;5112374;28;20200;-77
2021/04/20 01:57:19;;;;;;;42.17;31.30;;;;;;;7.03;86.42;100688.22;5111489;28;21329;-77
2021/04/20 01:59:46;;;;;;;38.50;29.87;;;;;;;7.12;86.06;100695.16;5112807;27;20588;-77
2021/04/20 02:02:13;;;;;;;45.13;32.00;;;;;;;7.07;86.25;100683.91;5111495;27;20212;-78
2021/04/20 02:04:39;;;;;;;49.70;34.80;;;;;;;7.01;86.56;100689.09;5112796;27;20212;-78
2021/04/20 02:07:05;;;;;;;46.10;31.70;;;;;;;6.97;86.38;100693.44;5111991;28;20223;-78
2021/04/20 02:09:31;;;;;;;42.13;30.77;;;;;;;6.99;86.78;100693.44;5112675;28;20211;-77
2021/04/20 02:12:00;;;;;;;37.70;29.10;;;;;;;7.06;86.64;100693.44;5111609;27;20292;-78
2021/04/20 02:14:26;;;;;;;37.63;29.87;;;;;;;7.11;85.82;100699.47;5112114;27;20220;-78
2021/04/20 02:16:53;;;;;;;42.33;30.97;;;;;;;7.11;85.48;100690.81;5111640;28;20595;-78
2021/04/20 02:19:19;;;;;;;42.53;30.93;;;;;;;7.11;85.87;100694.28;5112647;27;20206;-77
2021/04/20 02:21:48;;;;;;;40.83;30.20;;;;;;;7.12;86.35;100693.44;5111276;27;20207;-77
2021/04/20 02:24:14;;;;;;;39.83;31.27;;;;;;;7.12;85.95;100695.16;5112405;28;20210;-77
2021/04/20 02:26:41;;;;;;;44.17;31.60;;;;;;;7.07;86.35;100691.69;5111589;27;20229;-78
2021/04/20 02:29:09;;;;;;;48.47;34.13;;;;;;;7.11;86.54;100689.09;5111698;28;20646;-78
2021/04/20 02:31:37;;;;;;;48.20;32.43;;;;;;;7.16;86.84;100697.75;5110180;27;20257;-77
2021/04/20 02:34:04;;;;;;;50.00;34.57;;;;;;;7.13;86.67;100695.13;5112146;27;20207;-77
2021/04/20 02:36:32;;;;;;;50.83;33.10;;;;;;;7.03;86.42;100688.22;5110697;27;20724;-78
2021/04/20 02:38:58;;;;;;;49.73;34.97;;;;;;;6.98;87.21;100687.38;5111994;27;20200;-77
2021/04/20 02:41:24;;;;;;;52.07;34.57;;;;;;;6.96;87.59;100686.53;5111661;27;20208;-78
2021/04/20 02:43:50;;;;;;;40.57;31.80;;;;;;;6.84;86.80;100692.56;5111376;28;20215;-77
2021/04/20 02:46:17;;;;;;;53.37;34.47;;;;;;;6.76;87.35;100686.53;5110686;27;20235;-77
2021/04/20 02:48:44;;;;;;;45.20;32.53;;;;;;;6.76;87.12;100682.19;5110903;28;20200;-77
2021/04/20 02:51:12;;;;;;;36.97;29.40;;;;;;;6.81;86.83;100684.78;5110192;27;20211;-77
2021/04/20 02:53:41;;;;;;;48.20;33.83;;;;;;;6.81;87.14;100677.00;5111549;28;20196;-77
2021/04/20 02:56:07;;;;;;;52.40;35.43;;;;;;;6.79;87.41;100673.53;5110941;28;20226;-77
2021/04/20 02:58:33;;;;;;;54.03;36.03;;;;;;;6.76;87.40;100683.94;5111646;28;20224;-77
2021/04/20 03:01:03;;;;;;;53.27;34.70;;;;;;;6.71;87.35;100685.63;5110241;28;20207;-77
2021/04/20 03:03:29;;;;;;;43.50;33.53;;;;;;;6.67;87.76;100683.91;5110412;28;20652;-77
2021/04/20 03:06:00;;;;;;;54.37;35.00;;;;;;;6.66;87.97;100679.56;5110366;27;20288;-76
2021/04/20 03:08:28;;;;;;;59.20;36.73;;;;;;;6.61;88.26;100679.56;5111556;28;20207;-77
2021/04/20 03:10:58;;;;;;;67.57;39.73;;;;;;;6.54;88.68;100680.41;5110662;27;20211;-77
2021/04/20 03:13:24;;;;;;;56.70;37.03;;;;;;;6.54;88.66;100675.22;5110603;28;20203;-78
2021/04/20 03:15:50;;;;;;;55.00;34.90;;;;;;;6.51;88.99;100683.03;5109638;27;20276;-77
2021/04/20 03:18:16;;;;;;;46.70;32.43;;;;;;;6.47;88.11;100676.97;5110664;28;20312;-78
2021/04/20 03:20:42;;;;;;;51.97;34.87;;;;;;;6.39;88.35;100678.69;5110269;27;20207;-77
2021/04/20 03:23:09;;;;;;;58.67;38.23;;;;;;;6.34;89.27;100672.59;5109289;28;20269;-77
2021/04/20 03:25:36;;;;;;;57.67;35.77;;;;;;;6.28;88.44;100673.47;5110370;27;20220;-77
2021/04/20 03:28:02;;;;;;;61.27;37.67;;;;;;;6.24;88.73;100663.94;5110028;28;20696;-78
2021/04/20 03:30:30;;;;;;;74.70;42.10;;;;;;;6.27;90.15;100661.38;5110470;28;20212;-77
2021/04/20 03:33:05;;;;;;;60.70;37.73;;;;;;;6.33;90.31;100663.13;5109919;28;20752;-78
2021/04/20 03:35:39;;;;;;;72.43;41.20;;;;;;;6.31;89.73;100665.69;5109868;27;20279;-77
2021/04/20 03:38:12;;;;;;;66.27;39.07;;;;;;;6.38;90.14;100665.69;5110134;28;20732;-77
2021/04/20 03:40:49;;;;;;;60.50;38.10;;;;;;;6.29;89.59;100666.56;5110131;27;21315;-77
2021/04/20 03:43:17;;;;;;;63.30;39.77;;;;;;;6.23;89.64;100666.56;5109012;28;20260;-77
2021/04/20 03:45:50;;;;;;;67.03;40.63;;;;;;;6.13;89.97;100674.28;5109646;28;20219;-77
2021/04/20 03:48:19;;;;;;;64.00;40.23;;;;;;;6.12;90.12;100671.69;5109998;28;20203;-77
2021/04/20 03:50:52;;;;;;;64.63;39.80;;;;;;;6.03;90.14;100669.09;5108864;27;20211;-78
2021/04/20 03:53:20;;;;;;;62.70;37.83;;;;;;;6.00;90.02;100666.47;5109519;28;20219;-77
2021/04/20 03:55:49;;;;;;;61.97;38.47;;;;;;;5.88;89.70;100664.66;5109510;27;20231;-78
2021/04/20 03:58:18;;;;;;;59.03;36.63;;;;;;;5.83;90.92;100659.47;5109793;28;20191;-77
2021/04/20 04:00:49;;;;;;;62.57;37.07;;;;;;;5.80;89.86;100669.81;5109029;28;20199;-77
2021/04/20 04:03:16;;;;;;;67.37;39.40;;;;;;;5.78;90.06;100663.75;5109064;28;20692;-77
2021/04/20 04:05:43;;;;;;;68.37;41.13;;;;;;;5.76;90.97;100666.34;5108950;27;20223;-77
2021/04/20 04:08:09;;;;;;;84.87;43.90;;;;;;;5.83;91.26;100659.47;5109308;28;20223;-77
2021/04/20 04:10:39;;;;;;;77.37;41.63;;;;;;;5.82;91.27;100656.88;5109024;28;20676;-77
2021/04/20 04:13:08;;;;;;;68.37;39.30;;;;;;;5.77;91.55;100664.63;5109203;28;20199;-77
2021/04/20 04:15:36;;;;;;;67.13;40.53;;;;;;;5.72;91.06;100663.75;5108431;28;20223;-77
2021/04/20 04:18:06;;;;;;;64.00;39.27;;;;;;;5.61;90.97;100673.16;5108993;28;20627;-77
2021/04/20 04:20:33;;;;;;;63.03;36.67;;;;;;;5.51;91.06;100667.97;5108999;28;20218;-77
2021/04/20 04:23:02;;;;;;;62.90;38.47;;;;;;;5.45;91.00;100678.28;5110804;28;20226;-78
2021/04/20 04:25:33;;;;;;;75.40;40.90;;;;;;;5.44;91.57;100678.28;5110595;27;20227;-77
2021/04/20 04:28:01;;;;;;;61.57;36.77;;;;;;;5.38;91.86;100674.78;5110940;28;20707;-77
2021/04/20 04:30:29;;;;;;;81.47;42.60;;;;;;;5.38;91.33;100681.69;5110769;28;20949;-77
2021/04/20 04:32:56;;;;;;;63.07;38.33;;;;;;;5.33;91.38;100670.44;5110802;28;20199;-78
2021/04/20 04:35:23;;;;;;;67.37;38.27;;;;;;;5.32;91.25;100676.47;5110420;28;20223;-78
2021/04/20 04:37:50;;;;;;;65.43;36.87;;;;;;;5.34;90.90;100674.75;5111770;28;20221;-78
2021/04/20 04:40:17;;;;;;;57.47;35.97;;;;;;;5.35;90.96;100679.06;5113781;27;20200;-77
2021/04/20 04:42:43;;;;;;;59.30;37.10;;;;;;;5.37;91.66;100683.41;5112120;28;20210;-78
2021/04/20 04:45:10;;;;;;;79.23;43.63;;;;;;;5.43;92.25;100680.00;5112722;28;20210;-78
2021/04/20 04:47:38;;;;;;;81.53;44.27;;;;;;;5.50;92.25;100676.56;5111800;28;20258;-78
2021/04/20 04:50:07;;;;;;;69.20;40.73;;;;;;;5.48;92.20;100682.59;5111964;28;20746;-77
2021/04/20 04:52:34;;;;;;;67.77;39.13;;;;;;;5.50;92.27;100676.56;5110767;28;20212;-77
2021/04/20 04:55:00;;;;;;;64.87;38.13;;;;;;;5.46;92.34;100682.59;5111783;27;20208;-77
2021/04/20 04:57:27;;;;;;;71.57;40.70;;;;;;;5.45;91.87;100678.28;5110979;28;20195;-77
2021/04/20 04:59:55;;;;;;;77.23;40.07;;;;;;;5.41;91.84;100676.53;5111993;27;20199;-77
2021/04/20 05:02:21;;;;;;;73.73;40.53;;;;;;;5.46;92.13;100682.59;5109970;28;20207;-77
2021/04/20 05:04:48;;;;;;;79.00;43.83;;;;;;;5.53;92.60;100675.72;5112355;28;20207;-78
2021/04/20 05:07:15;;;;;;;74.17;41.97;;;;;;;5.56;92.38;100674.00;5111641;28;20726;-78
2021/04/20 05:09:41;;;;;;;71.93;41.67;;;;;;;5.65;92.38;100673.22;5112377;28;20234;-77
2021/04/20 05:12:10;;;;;;;69.90;41.23;;;;;;;5.69;91.91;100679.25;5110528;28;20289;-78
2021/04/20 05:14:36;;;;;;;63.10;38.77;;;;;;;5.68;91.82;100682.72;5111984;28;20362;-77
2021/04/20 05:17:04;;;;;;;68.37;39.13;;;;;;;5.68;91.51;100675.81;5111386;28;20629;-77
2021/04/20 05:19:32;;;;;;;69.30;39.83;;;;;;;5.70;90.98;100673.22;5112337;28;20264;-77
2021/04/20 05:22:00;;;;;;;63.87;38.73;;;;;;;5.69;91.67;100676.66;5110149;28;20207;-77
2021/04/20 05:24:27;;;;;;;64.27;39.00;;;;;;;5.67;91.19;100681.84;5110859;28;20294;-77
2021/04/20 05:26:53;;;;;;;68.87;40.60;;;;;;;5.67;91.32;100679.25;5109198;28;20764;-77
2021/04/20 05:29:20;;;;;;;64.20;40.17;;;;;;;5.63;91.41;100671.44;5111345;28;20256;-77
2021/04/20 05:31:46;;;;;;;69.93;41.03;;;;;;;5.64;91.58;100671.47;5109747;28;20218;-77
2021/04/20 05:34:12;;;;;;;71.90;40.57;;;;;;;5.69;91.54;100674.97;5110413;28;20665;-77
2021/04/20 05:36:38;;;;;;;70.70;42.57;;;;;;;5.79;91.74;100670.69;5109136;28;20227;-77
2021/04/20 05:39:07;;;;;;;70.07;41.70;;;;;;;5.76;91.44;100674.09;5109697;28;20218;-77
2021/04/20 05:41:35;;;;;;;68.60;39.63;;;;;;;5.82;91.45;100675.88;5108664;28;20254;-78
2021/04/20 05:44:03;;;;;;;71.87;41.97;;;;;;;5.88;91.44;100675.03;5109154;28;20677;-77
2021/04/20 05:46:29;;;;;;;73.97;40.83;;;;;;;5.90;91.35;100676.75;5107041;28;20761;-77
2021/04/20 05:48:56;;;;;;;71.13;40.93;;;;;;;5.92;91.68;100667.25;5108386;28;20223;-77
2021/04/20 05:51:24;;;;;;;74.77;42.23;;;;;;;6.00;91.08;100672.50;5109053;28;20203;-77
2021/04/20 05:53:53;;;;;;;71.40;42.70;;;;;;;6.08;91.28;100673.41;5109208;28;20207;-77
2021/04/20 05:56:21;;;;;;;70.43;41.27;;;;;;;6.16;90.80;100665.66;5109615;28;20269;-77
2021/04/20 05:58:51;;;;;;;72.80;42.97;;;;;;;6.15;91.18;100669.13;5109789;28;20252;-78
2021/04/20 06:01:17;;;;;;;68.63;40.50;;;;;;;6.23;90.95;100664.81;5108823;28;20203;-78
2021/04/20 06:03:44;;;;;;;70.47;40.70;;;;;;;6.30;90.68;100666.56;5107886;28;20204;-77
2021/04/20 06:06:14;;;;;;;68.00;40.17;;;;;;;6.32;90.42;100674.34;5107391;28;20227;-78
2021/04/20 06:08:41;;;;;;;66.97;40.37;;;;;;;6.35;90.08;100669.16;5109974;28;20227;-77
2021/04/20 06:11:08;;;;;;;65.50;39.80;;;;;;;6.44;90.09;100668.31;5109952;28;20268;-77
2021/04/20 06:13:35;;;;;;;67.17;39.43;;;;;;;6.41;90.44;100665.72;5108407;28;20574;-77
2021/04/20 06:16:02;;;;;;;68.63;39.43;;;;;;;6.53;90.14;100670.94;5109215;28;20263;-78
2021/04/20 06:18:31;;;;;;;55.30;37.20;;;;;;;6.57;89.21;100673.50;5110837;28;20199;-77
2021/04/20 06:20:59;;;;;;;53.53;35.03;;;;;;;6.71;89.91;100673.53;5110686;28;20209;-77
2021/04/20 06:23:25;;;;;;;61.13;37.70;;;;;;;6.60;88.87;100670.09;5112482;28;20204;-77
2021/04/20 06:25:57;;;;;;;58.80;38.27;;;;;;;6.60;89.63;100669.19;5110144;28;20228;-77
2021/04/20 06:28:24;;;;;;;64.27;39.33;;;;;;;6.70;89.61;100666.63;5111586;28;20730;-78
2021/04/20 06:30:51;;;;;;;63.07;39.17;;;;;;;6.74;90.24;100673.53;5110550;28;20206;-77
2021/04/20 06:33:19;;;;;;;62.53;38.00;;;;;;;6.84;90.07;100670.94;5111044;28;20199;-78
2021/04/20 06:35:45;;;;;;;63.47;39.13;;;;;;;6.89;89.59;100667.47;5109705;28;20231;-77
2021/04/20 06:38:12;;;;;;;62.97;40.53;;;;;;;6.93;90.27;100668.34;5110481;28;20272;-77
2021/04/20 06:40:41;;;;;;;73.13;41.20;;;;;;;6.93;90.81;100666.59;5114391;28;20716;-78
2021/04/20 06:43:10;;;;;;;72.53;42.67;;;;;;;6.97;90.81;100665.72;5112759;28;20233;-78
2021/04/20 06:45:44;;;;;;;75.20;45.23;;;;;;;7.11;91.03;100670.06;5113188;28;20261;-77
2021/04/20 06:48:22;;;;;;;68.20;43.23;;;;;;;7.19;90.37;100675.25;5113944;28;20230;-77
2021/04/20 06:50:53;;;;;;;72.57;42.23;;;;;;;7.28;89.97;100667.47;5112694;27;20226;-78
2021/04/20 06:53:25;;;;;;;68.10;43.10;;;;;;;7.30;89.86;100668.31;5114135;28;20211;-78
2021/04/20 06:56:03;;;;;;;67.57;42.63;;;;;;;7.41;90.45;100663.09;5114077;28;20310;-78
2021/04/20 06:58:40;;;;;;;80.00;44.60;;;;;;;7.46;89.98;100662.22;5115141;28;20287;-78
2021/04/20 07:01:09;;;;;;;71.17;43.53;;;;;;;7.62;89.12;100667.38;5113732;28;20211;-78
2021/04/20 07:03:41;;;;;;;67.70;42.73;;;;;;;7.68;88.60;100657.81;5114378;28;20302;-79
2021/04/20 07:06:14;;;;;;;63.70;41.43;;;;;;;7.74;88.53;100659.53;5113755;28;20223;-78
2021/04/20 07:08:44;;;;;;;62.73;41.97;;;;;;;7.87;88.08;100662.94;5114361;28;20235;-78
2021/04/20 07:11:13;;;;;;;53.77;38.57;;;;;;;8.02;87.94;100659.41;5114548;27;20199;-79
2021/04/20 07:13:44;;;;;;;56.33;39.73;;;;;;;8.15;86.65;100663.69;5116248;28;20249;-80
2021/04/20 07:16:24;;;;;;;55.93;37.90;;;;;;;8.26;86.32;100654.06;5119720;27;20292;-82
2021/04/20 07:19:28;;;;;;;57.63;39.20;;;;;;;8.27;86.82;100650.59;5111216;28;20287;-77
2021/04/20 07:22:10;;;;;;;54.87;38.23;;;;;;;8.33;85.81;100647.97;5090881;28;20226;-77
2021/04/20 07:24:54;;;;;;;49.60;35.40;;;;;;;8.39;85.34;100647.06;5109143;28;20213;-77
2021/04/20 07:27:32;;;;;;;55.97;39.70;;;;;;;8.44;85.51;100649.66;5109270;28;20297;-76
2021/04/20 07:30:09;;;;;;;55.97;37.33;;;;;;;8.56;85.35;100654.75;5109325;27;20286;-76
2021/04/20 07:33:00;;;;;;;53.93;37.70;;;;;;;8.55;85.08;100653.91;5108957;28;20203;-76
2021/04/20 07:35:33;;;;;;;60.37;38.03;;;;;;;8.52;84.95;100655.66;5106252;28;20225;-76
2021/04/20 07:38:02;;;;;;;59.67;36.90;;;;;;;8.63;85.47;100651.25;5108103;28;20308;-76
2021/04/20 07:40:35;;;;;;;52.33;36.67;;;;;;;8.74;84.38;100652.03;5109677;27;20206;-82
2021/04/20 07:43:16;;;;;;;51.43;36.00;;;;;;;8.84;84.22;100651.94;5115000;28;20200;-80
2021/04/20 07:45:49;;;;;;;51.87;37.73;;;;;;;8.91;83.95;100653.63;5113263;27;20247;-78
2021/04/20 07:48:35;;;;;;;52.47;37.43;;;;;;;8.81;84.32;100646.78;5111512;28;20223;-78
2021/04/20 07:51:08;;;;;;;51.97;36.63;;;;;;;8.84;84.93;100644.13;5112712;28;20203;-78
2021/04/20 07:53:39;;;;;;;52.03;38.03;;;;;;;8.78;84.91;100650.28;5115119;28;20254;-78
2021/04/20 07:56:15;;;;;;;58.57;39.13;;;;;;;8.77;85.85;100637.28;5112847;27;20223;-78
2021/04/20 07:58:44;;;;;;;58.40;40.10;;;;;;;8.92;85.54;100642.38;5115027;28;20205;-78
2021/04/20 08:01:21;;;;;;;50.27;38.57;;;;;;;9.00;85.14;100634.44;5112904;28;20207;-78
2021/04/20 08:03:53;;;;;;;56.77;39.27;;;;;;;9.09;84.06;100637.84;5114145;28;20201;-78
2021/04/20 08:06:25;;;;;;;53.73;37.97;;;;;;;9.23;84.56;100640.31;5109805;28;20321;-76
2021/04/20 08:08:55;;;;;;;62.43;39.17;;;;;;;9.36;83.81;100638.44;5109642;28;20264;-75
2021/04/20 08:11:24;;;;;;;44.77;33.00;;;;;;;9.51;82.42;100640.91;5108123;28;20249;-75
2021/04/20 08:13:54;;;;;;;44.97;34.00;;;;;;;9.52;81.27;100628.72;5107619;27;20679;-75
2021/04/20 08:16:26;;;;;;;43.13;31.37;;;;;;;9.50;79.68;100633.09;5106611;27;20223;-75
2021/04/20 08:18:57;;;;;;;39.93;31.57;;;;;;;9.61;79.85;100631.19;5108120;28;20215;-75
2021/04/20 08:21:25;;;;;;;35.93;30.73;;;;;;;9.74;79.61;100626.72;5107633;28;20199;-75
2021/04/20 08:23:55;;;;;;;39.40;30.20;;;;;;;9.87;78.57;100620.47;5108941;28;20196;-75
2021/04/20 08:26:26;;;;;;;31.20;27.23;;;;;;;9.96;77.48;100618.63;5107711;28;20231;-75
2021/04/20 08:28:58;;;;;;;30.70;26.67;;;;;;;10.03;76.93;100620.25;5108710;28;20734;-75
2021/04/20 08:31:34;;;;;;;31.53;26.23;;;;;;;10.07;76.45;100621.94;5108001;28;20331;-75
2021/04/20 08:34:11;;;;;;;24.13;21.90;;;;;;;10.16;73.79;100618.34;5107850;28;20233;-75
2021/04/20 08:36:48;;;;;;;24.93;22.17;;;;;;;10.18;72.72;100616.56;5106429;28;20607;-75
2021/04/20 08:39:18;;;;;;;22.30;20.00;;;;;;;10.30;72.79;100613.81;5107296;27;20200;-75
2021/04/20 08:41:51;;;;;;;15.97;14.57;;;;;;;10.37;69.46;100617.19;5106833;27;20217;-75
2021/04/20 08:44:27;;;;;;;15.43;14.13;;;;;;;10.42;68.38;100621.44;5108007;28;20204;-75
2021/04/20 08:47:02;;;;;;;16.27;10.63;;;;;;;10.51;65.67;100618.69;5107310;27;20247;-75
2021/04/20 08:49:37;;;;;;;11.70;10.70;;;;;;;10.55;63.97;100619.50;5108478;28;20208;-75
2021/04/20 08:52:08;;;;;;;15.10;12.70;;;;;;;10.61;64.43;100618.56;5106458;27;20205;-75
2021/04/20 08:54:46;;;;;;;11.17;10.07;;;;;;;10.68;62.84;100608.00;5108248;28;20667;-75
2021/04/20 08:57:21;;;;;;;14.17;12.87;;;;;;;10.77;65.66;100608.72;5106018;28;20233;-75
2021/04/20 09:00:10;;;;;;;14.23;12.77;;;;;;;10.88;64.43;100607.66;5108022;28;20714;-75
2021/04/20 09:02:51;;;;;;;13.40;12.20;;;;;;;10.97;65.79;100606.63;5104664;28;20250;-76
2021/04/20 09:05:22;;;;;;;12.60;11.43;;;;;;;11.03;63.46;100610.88;5107038;28;20223;-75
2021/04/20 09:07:59;;;;;;;14.73;13.17;;;;;;;11.07;64.58;100602.94;5107308;28;20223;-75
2021/04/20 09:10:34;;;;;;;10.97;9.87;;;;;;;11.13;62.02;100607.19;5106775;28;20214;-75
2021/04/20 09:13:08;;;;;;;10.67;9.60;;;;;;;11.28;61.68;100609.53;5106926;28;20215;-76
2021/04/20 09:15:40;;;;;;;12.90;11.60;;;;;;;11.40;62.79;100610.19;5107452;28;20310;-75
2021/04/20 09:18:13;;;;;;;14.87;13.67;;;;;;;11.52;64.40;100599.47;5106987;28;20196;-75
2021/04/20 09:20:47;;;;;;;14.30;12.67;;;;;;;11.50;63.91;100601.28;5107232;28;20253;-75
2021/04/20 09:23:22;;;;;;;13.47;12.33;;;;;;;11.61;64.64;100601.03;5107134;28;20209;-75
2021/04/20 09:25:59;;;;;;;13.07;11.77;;;;;;;11.52;62.84;100600.34;5106496;28;20252;-75
2021/04/20 09:28:31;;;;;;;14.00;12.73;;;;;;;11.65;64.63;100600.09;5106878;28;20211;-75
2021/04/20 09:31:06;;;;;;;14.63;12.40;;;;;;;11.72;64.32;100604.31;5106178;28;20207;-75
2021/04/20 09:33:41;;;;;;;13.50;12.13;;;;;;;11.80;63.53;100605.00;5106911;28;20245;-75
2021/04/20 09:36:09;;;;;;;13.27;11.93;;;;;;;11.83;64.32;100599.72;5106885;28;20220;-75
2021/04/20 09:38:38;;;;;;;17.77;12.80;;;;;;;11.94;64.44;100607.34;5107536;28;20650;-75
2021/04/20 09:41:08;;;;;;;13.00;11.43;;;;;;;12.00;63.77;100604.59;5107285;28;20197;-76
2021/04/20 09:43:47;;;;;;;12.80;11.60;;;;;;;12.00;64.16;100599.34;5107350;28;20257;-75
2021/04/20 09:46:18;;;;;;;12.90;11.83;;;;;;;12.02;64.15;100594.94;5106328;28;20234;-75
2021/04/20 09:48:57;;;;;;;13.90;11.73;;;;;;;12.12;64.30;100593.00;5106312;28;20585;-75
2021/04/20 09:51:27;;;;;;;13.67;12.30;;;;;;;12.11;64.35;100600.00;5106963;28;20228;-75
2021/04/20 09:53:57;;;;;;;13.33;12.13;;;;;;;12.12;64.38;100595.59;5106396;28;20208;-76
2021/04/20 09:56:30;;;;;;;12.97;11.47;;;;;;;12.19;64.49;100599.81;5107032;28;20224;-75
2021/04/20 09:58:57;;;;;;;14.10;12.57;;;;;;;12.13;62.77;100589.50;5107151;28;20199;-75
2021/04/20 10:01:37;;;;;;;14.60;12.13;;;;;;;12.26;64.60;100593.53;5106835;28;20686;-75
2021/04/20 10:04:07;;;;;;;13.30;12.10;;;;;;;12.30;64.34;100596.94;5106941;28;20213;-76
2021/04/20 10:06:42;;;;;;;13.43;12.10;;;;;;;12.47;64.46;100594.78;5106129;28;20235;-75
2021/04/20 10:09:23;;;;;;;14.17;12.00;;;;;;;12.52;63.51;100597.28;5107724;28;20218;-76
2021/04/20 10:11:57;;;;;;;12.97;11.90;;;;;;;12.66;63.42;100591.69;5106488;28;20195;-76
2021/04/20 10:14:31;;;;;;;13.37;12.17;;;;;;;12.77;63.45;100596.69;5109493;27;20337;-76
2021/04/20 10:17:09;;;;;;;13.27;11.83;;;;;;;12.67;63.29;100596.06;5110406;27;20221;-76
2021/04/20 10:19:40;;;;;;;12.53;11.63;;;;;;;12.81;64.59;100598.31;5111312;28;20293;-76
2021/04/20 10:22:17;;;;;;;12.67;11.67;;;;;;;12.94;63.64;100586.59;5109567;27;20590;-76
2021/04/20 10:24:52;;;;;;;13.63;12.37;;;;;;;13.03;62.83;100585.53;5110319;27;20205;-75
2021/04/20 10:27:24;;;;;;;12.13;11.00;;;;;;;12.87;62.58;100588.53;5109746;28;20916;-75
2021/04/20 10:29:56;;;;;;;16.33;12.17;;;;;;;13.00;63.78;100585.59;5111886;27;20261;-76
2021/04/20 10:32:28;;;;;;;12.90;11.67;;;;;;;13.17;63.89;100583.38;5110296;28;20196;-76
2021/04/20 10:34:55;;;;;;;12.63;11.63;;;;;;;13.21;62.03;100578.91;5110354;27;20210;-76
2021/04/20 10:37:33;;;;;;;12.17;10.83;;;;;;;13.20;62.82;100575.44;5109540;28;20235;-75
2021/04/20 10:40:01;;;;;;;12.53;11.33;;;;;;;13.05;63.55;100575.84;5110540;27;20208;-76
2021/04/20 10:42:30;;;;;;;12.90;11.67;;;;;;;13.18;63.71;100571.13;5110695;27;20210;-76
2021/04/20 10:44:57;;;;;;;12.40;11.33;;;;;;;13.34;62.85;100567.22;5111128;27;20203;-76
2021/04/20 10:47:25;;;;;;;12.70;11.50;;;;;;;13.48;62.81;100565.06;5109385;28;20231;-75
2021/04/20 10:49:52;;;;;;;13.70;12.33;;;;;;;13.44;63.34;100552.94;5110543;27;20546;-76
2021/04/20 10:52:19;;;;;;;13.77;12.33;;;;;;;13.63;64.07;100549.78;5108809;28;20664;-76
2021/04/20 10:54:48;;;;;;;19.30;13.03;;;;;;;13.79;62.42;100547.53;5110161;27;20216;-76
2021/04/20 10:57:17;;;;;;;12.97;11.67;;;;;;;13.96;62.10;100550.50;5109951;28;20224;-75
2021/04/20 10:59:50;;;;;;;12.40;11.40;;;;;;;14.03;61.18;100543.28;5111127;27;20211;-76
2021/04/20 11:02:19;;;;;;;13.50;11.93;;;;;;;13.98;61.16;100546.06;5109142;28;20215;-77
2021/04/20 11:04:47;;;;;;;13.83;12.63;;;;;;;13.75;61.30;100540.69;5109970;27;20582;-77
2021/04/20 11:07:19;;;;;;;13.07;11.83;;;;;;;14.06;62.84;100544.06;5109082;28;20230;-77
2021/04/20 11:09:46;;;;;;;13.43;12.07;;;;;;;14.43;62.88;100540.25;5110281;28;20207;-78
2021/04/20 11:12:15;;;;;;;14.40;12.23;;;;;;;14.69;60.35;100531.53;5109086;28;20196;-77
2021/04/20 11:14:43;;;;;;;13.70;12.50;;;;;;;14.64;60.83;100532.59;5109288;27;20655;-78
2021/04/20 11:17:14;;;;;;;14.47;13.23;;;;;;;14.32;60.32;100537.13;5109223;28;20227;-77
2021/04/20 11:19:46;;;;;;;13.37;12.17;;;;;;;14.24;60.90;100533.88;5110174;28;20198;-77
2021/04/20 11:22:16;;;;;;;12.87;11.87;;;;;;;14.54;60.51;100531.16;5108492;28;21097;-77
2021/04/20 11:24:47;;;;;;;13.83;11.97;;;;;;;14.85;59.78;100529.22;5109261;27;20216;-77
2021/04/20 11:27:17;;;;;;;12.00;11.03;;;;;;;15.26;57.23;100526.88;5108080;28;20234;-77